createdAt,value
2022-10-20T00:07:53.426Z,98750
2022-10-20T00:19:53.439Z,98750
2022-10-20T00:31:53.196Z,98750
2022-10-20T00:43:53.293Z,98750
2022-10-20T00:55:53.212Z,98750
2022-10-20T01:07:53.253Z,98750
2022-10-20T01:19:53.246Z,98750
2022-10-20T01:31:53.178Z,98750
2022-10-20T01:43:53.279Z,98750
2022-10-20T01:55:53.255Z,98750
2022-10-20T02:07:53.280Z,98750
2022-10-20T02:19:53.164Z,98750
2022-10-20T02:31:53.168Z,98750
2022-10-20T02:43:53.265Z,98750
2022-10-20T02:55:53.286Z,98750
2022-10-20T03:07:55.174Z,98750
2022-10-20T03:19:53.209Z,98750
2022-10-20T03:31:53.170Z,98750
2022-10-20T03:43:53.160Z,98750
2022-10-20T03:55:53.251Z,98750
2022-10-20T04:07:53.166Z,98750
2022-10-20T04:19:53.158Z,98750
2022-10-20T04:31:53.286Z,98750
2022-10-20T04:43:53.272Z,98750
2022-10-20T04:55:53.255Z,98750
2022-10-20T05:07:53.283Z,98750
2022-10-20T05:19:53.358Z,98750
2022-10-20T05:31:53.280Z,98750
2022-10-20T05:43:53.168Z,98750
2022-10-20T05:55:53.173Z,98750
2022-10-20T06:07:53.263Z,98750
2022-10-20T06:19:53.276Z,98750
2022-10-20T06:31:53.241Z,98750
2022-10-20T06:43:53.282Z,98750
2022-10-20T06:55:53.168Z,98750
2022-10-20T07:07:53.230Z,98750
2022-10-20T07:19:53.244Z,98750
2022-10-20T07:31:53.279Z,98750
2022-10-20T07:43:53.211Z,98750
2022-10-20T07:55:53.169Z,98750
2022-10-20T08:07:53.281Z,98750
2022-10-20T08:19:57.093Z,98750
2022-10-20T08:31:53.216Z,98750
2022-10-20T08:43:53.841Z,98750
2022-10-20T08:55:53.259Z,98750
2022-10-20T09:07:53.165Z,98750
2022-10-20T09:19:53.169Z,98750
2022-10-20T09:31:53.174Z,98750
2022-10-20T09:43:55.755Z,98750
2022-10-20T09:55:53.248Z,98750
2022-10-20T10:07:53.270Z,98750
2022-10-20T10:19:55.583Z,98750
2022-10-20T10:31:53.172Z,98750
2022-10-20T10:43:53.173Z,98750
2022-10-20T10:55:53.167Z,98140
2022-10-20T11:07:53.189Z,98130
2022-10-20T11:19:53.177Z,98150
2022-10-20T11:31:53.177Z,98110
2022-10-20T11:43:55.173Z,98100
2022-10-20T11:55:53.233Z,98110
2022-10-20T12:08:00.816Z,98090
2022-10-20T12:19:53.163Z,98100
2022-10-20T12:31:56.244Z,98080
2022-10-20T12:43:53.166Z,98040
2022-10-20T12:55:53.163Z,98030
2022-10-20T13:07:53.164Z,98030
2022-10-20T13:19:55.480Z,98020
2022-10-20T13:31:53.257Z,98050
2022-10-20T13:43:57.563Z,98030
2022-10-20T13:55:53.171Z,98030
2022-10-20T14:07:53.171Z,98030
2022-10-20T14:19:53.178Z,98050
2022-10-20T14:31:53.173Z,98040
2022-10-20T14:43:53.241Z,98050
2022-10-20T14:55:53.274Z,98010
2022-10-20T15:07:53.172Z,97950
2022-10-20T15:19:53.186Z,97980
2022-10-20T15:31:53.190Z,97970
2022-10-20T15:43:53.186Z,97970
2022-10-20T15:55:53.185Z,97960
2022-10-20T16:07:53.206Z,97950
2022-10-20T16:19:53.215Z,97940
2022-10-20T16:31:53.185Z,97930
2022-10-20T16:43:55.273Z,97930
2022-10-20T16:55:53.171Z,97930
2022-10-20T17:07:53.169Z,97930
2022-10-20T17:19:55.538Z,97930
2022-10-20T17:31:53.254Z,97920
2022-10-20T17:43:53.170Z,97910
2022-10-20T17:55:53.185Z,97920
2022-10-20T18:07:53.284Z,97930
2022-10-20T18:19:53.223Z,97910
2022-10-20T18:31:53.230Z,97870
2022-10-20T18:43:57.602Z,97890
2022-10-20T18:55:53.181Z,97890
2022-10-20T19:07:53.205Z,97880
2022-10-20T19:19:53.164Z,97890
2022-10-20T19:31:53.601Z,97870
2022-10-20T19:43:53.189Z,97850
2022-10-20T19:55:53.177Z,97840
2022-10-20T20:07:53.163Z,97800
2022-10-20T20:19:53.171Z,97790
2022-10-20T20:31:53.252Z,97770
2022-10-20T20:43:53.188Z,97770
2022-10-20T20:55:53.253Z,97790
2022-10-20T21:07:53.320Z,97790
2022-10-20T21:19:53.165Z,97790
2022-10-20T21:31:53.259Z,97790
2022-10-20T21:43:53.271Z,97800
2022-10-20T21:55:53.276Z,97790
2022-10-20T22:07:53.200Z,97790
2022-10-20T22:19:53.171Z,97780
2022-10-20T22:31:53.287Z,97780
2022-10-20T22:43:53.167Z,97790
2022-10-20T22:55:53.165Z,97800
2022-10-20T23:07:53.254Z,97810
2022-10-20T23:19:53.276Z,97800
2022-10-20T23:31:53.174Z,97810
2022-10-20T23:43:53.280Z,97810
2022-10-20T23:55:53.259Z,97770
